Latest Weather Observations for Ocean Reef

IDW60901

Issued at 4:51 am WST Friday 30 October 2020 (issued every 10 minutes, with the page automatically refreshed every 10 minutes)

About weather observations | Map of Perth area stations | Latest observations for Perth area | Other Formats
Station Details ID: 009214 Name: OCEAN REEF Lat: -31.76 Lon: 115.73 Height: 10.0 m
Data from the previous 72 hours. | See also: Recent months at Ocean Reef
Date/Time
WST
Temp
°C
App
Temp
°C
Dew
Point
°C
Rel
Hum
%
Delta-T
°C
Wind Press
QNH
hPa
Press
MSL
hPa
Rain since
9am
mm
Dir  Spd
km/h
Gust
km/h
Spd
kts
Gust
kts
30/04:30am - - - - - E 28 39 15 21 - - -
30/04:00am - - - - - E 26 37 14 20 - - -
30/03:30am - - - - - E 26 35 14 19 - - -
30/03:00am - - - - - E 24 35 13 19 - - -
30/02:30am - - - - - E 22 30 12 16 - - -
30/02:00am - - - - - E 24 32 13 17 - - -
30/01:30am - - - - - E 24 32 13 17 - - -
30/01:00am - - - - - E 24 32 13 17 - - -
30/12:30am - - - - - E 19 26 10 14 - - -
30/12:00am - - - - - E 17 24 9 13 - - -
 
Date/Time
WST
Temp
°C
App
Temp
°C
Dew
Point
°C
Rel
Hum
%
Delta-T
°C
Wind Press
QNH
hPa
Press
MSL
hPa
Rain since
9am
mm
Dir  Spd
km/h
Gust
km/h
Spd
kts
Gust
kts
29/11:30pm - - - - - E 19 28 10 15 - - -
29/11:00pm - - - - - E 20 26 11 14 - - -
29/10:30pm - - - - - ESE 15 22 8 12 - - -
29/10:00pm - - - - - SE 15 17 8 9 - - -
29/09:30pm - - - - - SE 11 11 6 6 - - -
29/09:00pm - - - - - SSE 15 17 8 9 - - -
29/08:30pm - - - - - SSE 13 17 7 9 - - -
29/08:00pm - - - - - SSE 19 26 10 14 - - -
29/07:30pm - - - - - SSE 20 30 11 16 - - -
29/07:00pm - - - - - S 30 37 16 20 - - -
29/06:30pm - - - - - S 32 39 17 21 - - -
29/06:00pm - - - - - S 32 37 17 20 - - -
29/05:30pm - - - - - S 30 37 16 20 - - -
29/05:00pm - - - - - S 33 39 18 21 - - -
29/04:30pm - - - - - S 32 39 17 21 - - -
29/04:00pm - - - - - S 32 39 17 21 - - -
29/03:30pm - - - - - S 32 41 17 22 - - -
29/03:00pm - - - - - S 26 39 14 21 - - -
29/02:30pm - - - - - ESE 19 30 10 16 - - -
29/02:00pm - - - - - ESE 20 28 11 15 - - -
29/01:30pm - - - - - ESE 22 35 12 19 - - -
29/01:00pm - - - - - ESE 20 32 11 17 - - -
29/12:30pm - - - - - E 26 35 14 19 - - -
29/12:00pm - - - - - E 26 37 14 20 - - -
29/11:30am - - - - - E 30 39 16 21 - - -
29/11:00am - - - - - E 32 44 17 24 - - -
29/10:41am - - - - - E 28 50 15 27 - - -
29/10:30am - - - - - E 30 44 16 24 - - -
29/10:00am - - - - - E 35 50 19 27 - - -
29/09:30am - - - - - E 32 44 17 24 - - -
29/09:00am - - - - - E 24 39 13 21 - - -
29/08:30am - - - - - ENE 30 43 16 23 - - -
29/08:05am - - - - - ENE 30 48 16 26 - - -
29/08:00am - - - - - ENE 32 48 17 26 - - -
29/07:41am - - - - - E 30 48 16 26 - - -
29/07:30am - - - - - E 30 44 16 24 - - -
29/07:00am - - - - - ENE 32 48 17 26 - - -
29/06:30am - - - - - E 28 39 15 21 - - -
29/06:00am - - - - - E 28 39 15 21 - - -
29/05:47am - - - - - E 30 48 16 26 - - -
29/05:30am - - - - - E 33 46 18 25 - - -
29/05:00am - - - - - E 35 50 19 27 - - -
29/04:30am - - - - - E 35 50 19 27 - - -
29/04:05am - - - - - E 35 54 19 29 - - -
29/04:00am - - - - - E 33 46 18 25 - - -
29/03:30am - - - - - E 35 50 19 27 - - -
29/03:00am - - - - - E 30 41 16 22 - - -
29/02:30am - - - - - E 33 48 18 26 - - -
29/02:00am - - - - - E 32 48 17 26 - - -
29/01:59am - - - - - E 32 48 17 26 - - -
29/01:30am - - - - - ESE 22 30 12 16 - - -
29/01:00am - - - - - E 24 33 13 18 - - -
29/12:30am - - - - - SE 13 17 7 9 - - -
29/12:00am - - - - - SE 11 13 6 7 - - -
 
Date/Time
WST
Temp
°C
App
Temp
°C
Dew
Point
°C
Rel
Hum
%
Delta-T
°C
Wind Press
QNH
hPa
Press
MSL
hPa
Rain since
9am
mm
Dir  Spd
km/h
Gust
km/h
Spd
kts
Gust
kts
28/11:30pm - - - - - SSE 13 15 7 8 - - -
28/11:00pm - - - - - SSE 13 17 7 9 - - -
28/10:30pm - - - - - SSE 13 19 7 10 - - -
28/10:00pm - - - - - SSE 15 19 8 10 - - -
28/09:30pm - - - - - SSE 20 26 11 14 - - -
28/09:00pm - - - - - S 33 41 18 22 - - -
28/08:30pm - - - - - S 35 43 19 23 - - -
28/08:00pm - - - - - S 37 44 20 24 - - -
28/07:30pm - - - - - S 37 44 20 24 - - -
28/07:00pm - - - - - S 37 46 20 25 - - -
28/06:30pm - - - - - S 37 46 20 25 - - -
28/06:00pm - - - - - SSW 37 44 20 24 - - -
28/05:30pm - - - - - SSW 39 44 21 24 - - -
28/05:00pm - - - - - SSW 35 43 19 23 - - -
28/04:30pm - - - - - SSW 35 43 19 23 - - -
28/04:00pm - - - - - SSW 35 43 19 23 - - -
28/03:30pm - - - - - SSW 35 41 19 22 - - -
28/03:00pm - - - - - SSW 35 43 19 23 - - -
28/02:30pm - - - - - SSW 35 41 19 22 - - -
28/02:00pm - - - - - SSW 33 39 18 21 - - -
28/01:30pm - - - - - SSW 35 41 19 22 - - -
28/01:00pm - - - - - SSW 33 41 18 22 - - -
28/12:30pm - - - - - SSW 32 35 17 19 - - -
28/12:00pm - - - - - SSW 30 33 16 18 - - -
28/11:30am - - - - - SSW 26 32 14 17 - - -
28/11:00am - - - - - SSW 28 32 15 17 - - -
28/10:30am - - - - - SSW 24 28 13 15 - - -
28/10:00am - - - - - SSW 19 22 10 12 - - -
28/09:30am - - - - - S 19 26 10 14 - - -
28/09:00am - - - - - S 22 30 12 16 - - -
28/08:30am - - - - - SSE 17 22 9 12 - - -
28/08:00am - - - - - S 13 17 7 9 - - -
28/07:30am - - - - - SSE 11 17 6 9 - - -
28/07:00am - - - - - ESE 6 9 3 5 - - -
28/06:30am - - - - - ENE 9 11 5 6 - - -
28/06:00am - - - - - SE 9 11 5 6 - - -
28/05:30am - - - - - S 13 19 7 10 - - -
28/05:00am - - - - - S 17 22 9 12 - - -
28/04:30am - - - - - SSW 20 26 11 14 - - -
28/04:00am - - - - - SSW 26 30 14 16 - - -
28/03:30am - - - - - SSW 30 35 16 19 - - -
28/03:00am - - - - - SSW 22 33 12 18 - - -
28/02:30am - - - - - SW 22 30 12 16 - - -
28/02:00am - - - - - SW 20 28 11 15 - - -
28/01:30am - - - - - SSW 22 30 12 16 - - -
28/01:00am - - - - - SSW 26 30 14 16 - - -
28/12:30am - - - - - SSW 19 22 10 12 - - -
28/12:00am - - - - - SSW 26 32 14 17 - - -
 
Date/Time
WST
Temp
°C
App
Temp
°C
Dew
Point
°C
Rel
Hum
%
Delta-T
°C
Wind Press
QNH
hPa
Press
MSL
hPa
Rain since
9am
mm
Dir  Spd
km/h
Gust
km/h
Spd
kts
Gust
kts
27/11:30pm - - - - - SSW 30 35 16 19 - - -
27/11:00pm - - - - - SSW 33 39 18 21 - - -
27/10:30pm - - - - - WSW 20 32 11 17 - - -
27/10:00pm - - - - - WSW 17 20 9 11 - - -
27/09:30pm - - - - - W 15 20 8 11 - - -
27/09:00pm - - - - - WSW 17 20 9 11 - - -
27/08:30pm - - - - - WSW 13 15 7 8 - - -
27/08:00pm - - - - - W 15 17 8 9 - - -
27/07:30pm - - - - - WSW 19 26 10 14 - - -
27/07:00pm - - - - - WSW 22 28 12 15 - - -
27/06:30pm - - - - - WSW 20 26 11 14 - - -
27/06:00pm - - - - - WSW 17 22 9 12 - - -
27/05:30pm - - - - - WSW 19 24 10 13 - - -
27/05:00pm - - - - - WSW 17 19 9 10 - - -
27/04:30pm - - - - - WSW 19 26 10 14 - - -
27/04:00pm - - - - - WSW 20 28 11 15 - - -
27/03:30pm - - - - - WSW 22 28 12 15 - - -
27/03:00pm - - - - - WSW 24 28 13 15 - - -
27/02:30pm - - - - - WSW 22 28 12 15 - - -
27/02:00pm - - - - - WSW 22 28 12 15 - - -
27/01:30pm - - - - - WSW 22 26 12 14 - - -
27/01:00pm - - - - - W 24 28 13 15 - - -
27/12:30pm - - - - - W 24 26 13 14 - - -
27/12:00pm - - - - - W 22 28 12 15 - - -
27/11:30am - - - - - W 20 26 11 14 - - -
27/11:00am - - - - - W 24 28 13 15 - - -
27/10:30am - - - - - W 26 30 14 16 - - -
27/10:00am - - - - - WNW 22 26 12 14 - - -
27/09:30am - - - - - NW 20 24 11 13 - - -
27/09:00am - - - - - NW 20 22 11 12 - - -
27/08:30am - - - - - NNW 22 28 12 15 - - -
27/08:00am - - - - - NNW 17 19 9 10 - - -
27/07:30am - - - - - N 13 19 7 10 - - -
27/07:00am - - - - - NNE 15 19 8 10 - - -
27/06:30am - - - - - NNE 15 19 8 10 - - -
27/06:00am - - - - - NNE 15 19 8 10 - - -
27/05:30am - - - - - NNE 17 22 9 12 - - -
27/05:00am - - - - - NNE 15 19 8 10 - - -

Latest Capital City Observations: Canberra | Sydney | Melbourne | Brisbane | Adelaide | Perth | Hobart | Darwin

Other formats

Comma delimited format used in spreadsheet applications
http://www.bom.gov.au/fwo/IDW60901/IDW60901.94607.axf

JavaScript Object Notation format (JSON) in row-major order
http://www.bom.gov.au/fwo/IDW60901/IDW60901.94607.json

Data quality

Most of these data are generated automatically and are frequently updated. Quality checks on data are not normally performed. It is possible for incorrect values to appear. Refer to information at About Latest Weather Observations and please check the disclaimer before using these data.